createdAt,value
2023-04-18T00:01:54.816Z,5.13
2023-04-18T00:04:21.571Z,6.03
2023-04-18T00:06:49.990Z,7.63
2023-04-18T00:09:16.660Z,9.17
2023-04-18T00:11:43.385Z,6.00
2023-04-18T00:14:10.524Z,5.57
2023-04-18T00:16:38.171Z,7.07
2023-04-18T00:19:05.366Z,7.63
2023-04-18T00:21:32.249Z,7.40
2023-04-18T00:23:58.884Z,7.67
2023-04-18T00:26:25.966Z,6.20
2023-04-18T00:28:52.580Z,6.80
2023-04-18T00:31:19.335Z,8.70
2023-04-18T00:33:46.008Z,7.47
2023-04-18T00:36:12.642Z,7.40
2023-04-18T00:38:39.510Z,7.87
2023-04-18T00:41:06.142Z,7.77
2023-04-18T00:43:35.126Z,6.83
2023-04-18T00:46:01.791Z,8.13
2023-04-18T00:48:29.479Z,7.43
2023-04-18T00:50:56.249Z,7.23
2023-04-18T00:53:22.927Z,8.93
2023-04-18T00:55:49.840Z,10.83
2023-04-18T00:58:16.820Z,8.30
2023-04-18T01:00:44.115Z,10.20
2023-04-18T01:03:11.208Z,10.47
2023-04-18T01:05:38.218Z,9.13
2023-04-18T01:08:04.865Z,10.17
2023-04-18T01:10:31.482Z,10.00
2023-04-18T01:13:24.928Z,13.17
2023-04-18T01:15:52.131Z,11.07
2023-04-18T01:18:19.279Z,10.13
2023-04-18T01:20:47.835Z,15.23
2023-04-18T01:23:15.825Z,12.33
2023-04-18T01:25:42.820Z,10.50
2023-04-18T01:28:10.161Z,9.23
2023-04-18T01:30:37.151Z,15.60
2023-04-18T01:33:04.649Z,10.00
2023-04-18T01:35:32.406Z,8.47
2023-04-18T01:37:59.462Z,12.20
2023-04-18T01:40:26.264Z,12.90
2023-04-18T01:42:52.884Z,13.10
2023-04-18T01:45:20.040Z,11.27
2023-04-18T01:47:47.077Z,12.87
2023-04-18T01:50:14.230Z,12.60
2023-04-18T01:52:41.381Z,13.07
2023-04-18T01:55:08.454Z,16.03
2023-04-18T01:57:36.837Z,11.37
2023-04-18T02:00:06.538Z,11.67
2023-04-18T02:02:33.306Z,14.67
2023-04-18T02:05:00.105Z,11.63
2023-04-18T02:07:26.701Z,18.47
2023-04-18T02:09:53.300Z,10.90
2023-04-18T02:12:20.206Z,12.37
2023-04-18T02:14:51.629Z,15.00
2023-04-18T02:17:18.444Z,12.53
2023-04-18T02:19:45.065Z,15.00
2023-04-18T02:22:11.645Z,13.50
2023-04-18T02:24:38.264Z,13.60
2023-04-18T02:27:04.911Z,13.27
2023-04-18T02:29:31.529Z,13.73
2023-04-18T02:31:58.510Z,14.40
2023-04-18T02:34:25.178Z,13.40
2023-04-18T02:36:51.757Z,16.83
2023-04-18T02:39:18.398Z,18.93
2023-04-18T02:41:45.045Z,13.43
2023-04-18T02:44:11.845Z,15.53
2023-04-18T02:46:38.564Z,18.73
2023-04-18T02:49:05.181Z,12.83
2023-04-18T02:51:32.179Z,15.03
2023-04-18T02:53:58.809Z,17.53
2023-04-18T02:56:25.428Z,16.83
2023-04-18T02:58:52.027Z,15.60
2023-04-18T03:01:18.680Z,16.17
2023-04-18T03:03:45.710Z,12.57
2023-04-18T03:06:12.631Z,17.17
2023-04-18T03:08:39.437Z,15.27
2023-04-18T03:11:06.134Z,15.13
2023-04-18T03:13:34.109Z,13.63
2023-04-18T03:16:01.144Z,12.20
2023-04-18T03:18:27.799Z,35.60
2023-04-18T03:20:54.411Z,15.87
2023-04-18T03:23:21.114Z,15.80
2023-04-18T03:25:47.662Z,16.73
2023-04-18T03:28:14.263Z,12.33
2023-04-18T03:30:40.929Z,15.97
2023-04-18T03:33:07.901Z,16.60
2023-04-18T03:35:34.498Z,11.97
2023-04-18T03:38:01.182Z,14.27
2023-04-18T03:40:27.805Z,13.93
2023-04-18T03:42:54.364Z,15.97
2023-04-18T03:45:20.902Z,15.90
2023-04-18T03:47:47.613Z,13.87
2023-04-18T03:50:14.215Z,15.20
2023-04-18T03:52:40.775Z,14.23
2023-04-18T03:55:07.796Z,15.27
2023-04-18T03:57:34.416Z,16.30
2023-04-18T04:00:01.116Z,17.90
2023-04-18T04:02:27.802Z,13.17
2023-04-18T04:04:54.529Z,12.50
2023-04-18T04:07:21.149Z,11.97
2023-04-18T04:09:48.171Z,12.37
2023-04-18T04:12:14.790Z,13.50
2023-04-18T04:14:41.365Z,12.33
2023-04-18T04:17:08.146Z,14.13
2023-04-18T04:19:34.748Z,12.53
2023-04-18T04:22:01.312Z,13.13
2023-04-18T04:24:29.200Z,13.70
2023-04-18T04:26:56.352Z,13.77
2023-04-18T04:29:23.969Z,20.57
2023-04-18T04:31:50.675Z,16.70
2023-04-18T04:34:17.355Z,19.07
2023-04-18T04:36:44.357Z,15.77
2023-04-18T04:39:11.837Z,13.80
2023-04-18T04:41:41.520Z,16.47
2023-04-18T04:44:09.563Z,20.13
2023-04-18T04:46:39.622Z,16.53
2023-04-18T04:49:06.592Z,14.03
2023-04-18T04:51:33.231Z,13.50
2023-04-18T04:53:59.848Z,15.23
2023-04-18T04:56:26.449Z,17.73
2023-04-18T04:58:54.231Z,15.00
2023-04-18T05:01:20.964Z,15.43
2023-04-18T05:03:47.915Z,15.87
2023-04-18T05:06:20.532Z,13.60
2023-04-18T05:08:50.977Z,14.60
2023-04-18T05:11:17.889Z,15.03
2023-04-18T05:13:44.587Z,14.60
2023-04-18T05:16:11.346Z,14.10
2023-04-18T05:18:39.360Z,14.03
2023-04-18T05:21:06.191Z,13.60
2023-04-18T05:23:39.598Z,10.63
2023-04-18T05:26:06.502Z,13.07
2023-04-18T05:28:33.194Z,12.93
2023-04-18T05:31:02.584Z,14.07
2023-04-18T05:33:30.267Z,11.83
2023-04-18T05:35:57.361Z,10.80
2023-04-18T05:38:24.103Z,10.60
2023-04-18T05:40:55.664Z,9.70
2023-04-18T05:43:23.198Z,12.60
2023-04-18T05:45:52.241Z,12.57
2023-04-18T05:48:19.488Z,13.17
2023-04-18T05:50:46.249Z,20.40
2023-04-18T05:53:13.069Z,15.60
2023-04-18T05:55:41.101Z,18.87
2023-04-18T05:58:07.904Z,24.97
2023-04-18T06:00:35.159Z,16.90
2023-04-18T06:03:02.089Z,11.30
2023-04-18T06:05:29.426Z,10.60
2023-04-18T06:07:56.256Z,8.17
2023-04-18T06:10:22.843Z,9.97
2023-04-18T06:12:49.477Z,7.80
2023-04-18T06:15:16.150Z,9.80
2023-04-18T06:17:42.867Z,13.27
2023-04-18T06:20:10.054Z,7.57
2023-04-18T06:22:36.782Z,7.17
2023-04-18T06:25:03.768Z,6.70
2023-04-18T06:27:31.831Z,6.30
2023-04-18T06:29:58.793Z,10.73
2023-04-18T06:32:25.916Z,8.67
2023-04-18T06:34:53.257Z,8.97
2023-04-18T06:37:20.233Z,8.83
2023-04-18T06:39:47.063Z,10.93
2023-04-18T06:42:13.776Z,9.80
2023-04-18T06:44:40.779Z,20.43
2023-04-18T06:47:07.415Z,12.83
2023-04-18T06:49:34.593Z,13.33
2023-04-18T06:52:01.241Z,21.40
2023-04-18T06:54:27.849Z,25.83
2023-04-18T06:56:54.529Z,20.67
2023-04-18T06:59:21.691Z,9.00
2023-04-18T07:01:48.998Z,11.40
2023-04-18T07:04:16.123Z,10.63
2023-04-18T07:06:43.338Z,6.93
2023-04-18T07:09:09.941Z,9.80
2023-04-18T07:11:36.545Z,6.97
2023-04-18T07:14:03.097Z,8.60
2023-04-18T07:16:29.734Z,7.87
2023-04-18T07:18:56.374Z,7.67
2023-04-18T07:21:23.918Z,7.30
2023-04-18T07:23:50.529Z,7.43
2023-04-18T07:26:17.158Z,6.67
2023-04-18T07:28:43.744Z,6.57
2023-04-18T07:31:11.770Z,9.93
2023-04-18T07:33:38.990Z,7.17
2023-04-18T07:36:06.184Z,9.03
2023-04-18T07:38:34.729Z,8.60
2023-04-18T07:41:02.315Z,7.83
2023-04-18T07:43:29.002Z,7.27
2023-04-18T07:45:55.862Z,7.53
2023-04-18T07:48:22.792Z,8.90
2023-04-18T07:50:49.759Z,6.77
2023-04-18T07:53:16.494Z,9.53
2023-04-18T07:55:45.958Z,7.40
2023-04-18T07:58:13.037Z,12.93
2023-04-18T08:00:39.885Z,7.10
2023-04-18T08:03:13.037Z,5.57
2023-04-18T08:05:41.240Z,6.77
2023-04-18T08:08:09.334Z,7.50
2023-04-18T08:10:36.406Z,5.90
2023-04-18T08:13:03.538Z,5.10
2023-04-18T08:15:32.550Z,6.73
2023-04-18T08:18:00.406Z,7.60
2023-04-18T08:20:27.426Z,6.97
2023-04-18T08:23:06.115Z,6.20
2023-04-18T08:25:36.591Z,6.83
2023-04-18T08:28:04.157Z,6.07
2023-04-18T08:30:31.054Z,6.87
2023-04-18T08:32:57.784Z,7.17
2023-04-18T08:35:24.467Z,9.33
2023-04-18T08:37:51.140Z,6.07
2023-04-18T08:40:18.660Z,6.97
2023-04-18T08:42:45.557Z,7.00
2023-04-18T08:45:15.350Z,5.57
2023-04-18T08:47:42.690Z,5.03
2023-04-18T08:50:10.665Z,5.33
2023-04-18T08:52:39.620Z,5.45
2023-04-18T08:55:07.433Z,5.47
2023-04-18T08:57:35.787Z,6.20
2023-04-18T09:00:02.441Z,5.23
2023-04-18T09:02:39.103Z,5.03
2023-04-18T09:05:16.381Z,6.13
2023-04-18T09:07:43.242Z,5.30
2023-04-18T09:10:10.246Z,5.60
2023-04-18T09:12:49.955Z,4.83
2023-04-18T09:15:20.277Z,6.17
2023-04-18T09:17:51.464Z,6.40
2023-04-18T09:20:35.951Z,6.07
2023-04-18T09:23:04.414Z,5.43
2023-04-18T09:25:35.867Z,5.67
2023-04-18T09:28:03.436Z,5.67
2023-04-18T09:30:39.538Z,6.17
2023-04-18T09:33:10.303Z,6.03
2023-04-18T09:35:38.006Z,4.30
2023-04-18T09:38:05.299Z,5.80
2023-04-18T09:40:33.003Z,4.23
2023-04-18T09:42:59.786Z,6.93
2023-04-18T09:45:26.758Z,8.23
2023-04-18T09:47:53.973Z,7.17
2023-04-18T09:50:20.978Z,5.10
2023-04-18T09:52:48.486Z,5.77
2023-04-18T09:55:17.174Z,6.23
2023-04-18T09:57:45.691Z,6.47
2023-04-18T10:00:38.720Z,5.57
2023-04-18T10:03:08.322Z,7.07
2023-04-18T10:05:39.320Z,4.43
2023-04-18T10:08:06.652Z,10.70
2023-04-18T10:10:33.495Z,6.57
2023-04-18T10:13:02.181Z,5.50
2023-04-18T10:15:29.866Z,6.73
2023-04-18T10:18:23.233Z,7.40
2023-04-18T10:20:49.948Z,8.63
2023-04-18T10:23:43.129Z,5.90
2023-04-18T10:26:10.619Z,6.03
2023-04-18T10:28:59.498Z,6.50
2023-04-18T10:31:28.094Z,6.83
2023-04-18T10:34:04.794Z,6.33
2023-04-18T10:36:32.487Z,5.87
2023-04-18T10:39:20.313Z,5.57
2023-04-18T10:41:51.511Z,7.80
2023-04-18T10:44:20.065Z,7.40
2023-04-18T10:46:53.334Z,8.07
2023-04-18T10:49:21.653Z,7.33
2023-04-18T10:51:51.184Z,6.93
2023-04-18T10:54:21.059Z,7.23
2023-04-18T10:57:04.222Z,8.90
2023-04-18T10:59:33.824Z,6.80
2023-04-18T11:02:23.392Z,8.93
2023-04-18T11:04:54.239Z,11.23
2023-04-18T11:07:34.790Z,7.10
2023-04-18T11:10:02.148Z,9.20
2023-04-18T11:12:34.221Z,9.40
2023-04-18T11:15:08.286Z,9.20
2023-04-18T11:17:35.982Z,8.53
2023-04-18T11:20:11.621Z,7.40
2023-04-18T11:22:55.506Z,7.27
2023-04-18T11:25:35.576Z,6.20
2023-04-18T11:28:04.094Z,7.93
2023-04-18T11:30:41.374Z,9.87
2023-04-18T11:33:11.884Z,10.33
2023-04-18T11:35:42.888Z,7.60
2023-04-18T11:38:14.454Z,9.47
2023-04-18T11:40:51.197Z,13.47
2023-04-18T11:43:22.687Z,10.07
2023-04-18T11:45:56.445Z,8.57
2023-04-18T11:48:23.753Z,14.83
2023-04-18T11:50:50.652Z,9.43
2023-04-18T11:53:35.012Z,9.57
2023-04-18T11:56:03.563Z,9.53
2023-04-18T11:58:34.288Z,11.87
2023-04-18T12:01:19.349Z,9.90
2023-04-18T12:04:03.582Z,8.60
2023-04-18T12:06:50.308Z,10.27
2023-04-18T12:09:17.509Z,11.07
2023-04-18T12:11:44.102Z,9.20
2023-04-18T12:14:21.758Z,7.23
2023-04-18T12:16:52.046Z,15.63
2023-04-18T12:19:20.832Z,12.63
2023-04-18T12:22:01.531Z,11.70
2023-04-18T12:24:29.018Z,10.57
2023-04-18T12:26:58.143Z,9.83
2023-04-18T12:29:29.341Z,13.03
2023-04-18T12:31:56.061Z,15.00
2023-04-18T12:34:22.701Z,17.07
2023-04-18T12:36:49.578Z,14.80
2023-04-18T12:39:16.180Z,16.23
2023-04-18T12:41:43.824Z,10.70
2023-04-18T12:44:10.441Z,10.10
2023-04-18T12:46:37.105Z,5.07
2023-04-18T12:49:03.736Z,0.10
2023-04-18T12:51:30.386Z,0.10
2023-04-18T12:53:57.174Z,0.20
2023-04-18T12:56:25.333Z,0.17
2023-04-18T12:58:51.925Z,0.20
2023-04-18T13:01:18.560Z,0.30
2023-04-18T13:03:48.672Z,0.47
2023-04-18T13:06:20.458Z,0.20
2023-04-18T13:08:47.538Z,0.10
2023-04-18T13:11:14.253Z,0.93
2023-04-18T13:13:40.823Z,0.20
2023-04-18T13:16:07.574Z,0.17
2023-04-18T13:18:34.266Z,0.20
2023-04-18T13:21:03.954Z,0.20
2023-04-18T13:23:30.781Z,0.10
2023-04-18T13:25:58.832Z,0.10
2023-04-18T13:28:25.468Z,0.20
2023-04-18T13:30:52.086Z,0.20
2023-04-18T13:33:18.952Z,0.20
2023-04-18T13:35:45.700Z,0.20
2023-04-18T13:38:12.338Z,0.20
2023-04-18T13:40:38.912Z,0.30
2023-04-18T13:43:05.646Z,0.23
2023-04-18T13:45:32.505Z,0.20
2023-04-18T13:47:59.200Z,0.10
2023-04-18T13:50:25.898Z,0.20
2023-04-18T13:52:54.669Z,0.10
2023-04-18T13:55:21.482Z,2.20
2023-04-18T13:57:48.187Z,0.20
2023-04-18T14:00:15.299Z,0.20
2023-04-18T14:02:42.088Z,0.20
2023-04-18T14:05:09.371Z,0.10
2023-04-18T14:07:36.469Z,0.20
2023-04-18T14:10:03.073Z,0.20
2023-04-18T14:12:29.659Z,0.10
2023-04-18T14:14:56.335Z,0.30
2023-04-18T14:17:22.984Z,0.20
2023-04-18T14:19:51.413Z,0.10
2023-04-18T14:22:17.960Z,0.20
2023-04-18T14:24:44.514Z,0.20
2023-04-18T14:27:11.169Z,0.20
2023-04-18T14:29:41.185Z,0.30
2023-04-18T14:32:07.764Z,0.40
2023-04-18T14:34:35.898Z,0.20
2023-04-18T14:37:03.842Z,0.20
2023-04-18T14:39:31.081Z,0.20
2023-04-18T14:41:58.023Z,0.20
2023-04-18T14:44:31.670Z,3.00
2023-04-18T14:46:58.408Z,0.20
2023-04-18T14:49:25.110Z,0.20
2023-04-18T14:51:51.732Z,0.30
2023-04-18T14:54:18.379Z,0.20
2023-04-18T14:56:44.980Z,0.73
2023-04-18T14:59:16.435Z,0.20
2023-04-18T15:01:43.720Z,0.10
2023-04-18T15:04:10.889Z,0.37
2023-04-18T15:06:37.673Z,0.30
2023-04-18T15:09:04.261Z,0.20
2023-04-18T15:11:30.854Z,0.20
2023-04-18T15:13:57.396Z,0.17
2023-04-18T15:16:27.824Z,0.20
2023-04-18T15:18:54.505Z,0.10
2023-04-18T15:21:21.087Z,0.10
2023-04-18T15:23:47.707Z,0.20
2023-04-18T15:26:14.263Z,0.20
2023-04-18T15:28:40.920Z,0.20
2023-04-18T15:31:07.994Z,0.13
2023-04-18T15:33:34.594Z,0.40
2023-04-18T15:36:01.250Z,0.20
2023-04-18T15:38:27.950Z,0.30
2023-04-18T15:40:54.637Z,0.13
2023-04-18T15:43:21.282Z,0.20
2023-04-18T15:45:48.016Z,1.03
2023-04-18T15:48:14.695Z,0.20
2023-04-18T15:50:42.466Z,0.20
2023-04-18T15:53:09.113Z,0.20
2023-04-18T15:55:35.866Z,0.90
2023-04-18T15:58:02.520Z,0.20
2023-04-18T16:00:29.116Z,0.20
2023-04-18T16:02:55.797Z,0.30
2023-04-18T16:05:23.058Z,0.20
2023-04-18T16:07:49.772Z,0.10
2023-04-18T16:10:16.779Z,0.20
2023-04-18T16:12:43.357Z,0.20
2023-04-18T16:15:10.536Z,0.20
2023-04-18T16:17:37.501Z,0.20
2023-04-18T16:20:06.368Z,0.20
2023-04-18T16:22:34.075Z,0.20
2023-04-18T16:25:00.657Z,0.10
2023-04-18T16:27:27.403Z,0.20
2023-04-18T16:29:54.303Z,0.50
2023-04-18T16:32:21.251Z,0.20
2023-04-18T16:34:48.522Z,0.10
2023-04-18T16:37:15.376Z,0.70
2023-04-18T16:39:42.016Z,4.37
2023-04-18T16:42:08.682Z,0.20
2023-04-18T16:44:35.489Z,0.30
2023-04-18T16:47:02.241Z,0.20
2023-04-18T16:49:28.978Z,0.33
2023-04-18T16:51:55.597Z,0.20
2023-04-18T16:54:22.278Z,0.10
2023-04-18T16:56:48.883Z,0.30
2023-04-18T16:59:15.730Z,0.20
2023-04-18T17:01:42.323Z,0.20
2023-04-18T17:04:08.966Z,0.20
2023-04-18T17:06:35.581Z,0.10
2023-04-18T17:09:02.227Z,0.20
2023-04-18T17:11:28.968Z,0.10
2023-04-18T17:13:56.446Z,0.20
2023-04-18T17:16:23.135Z,0.20
2023-04-18T17:18:49.744Z,0.10
2023-04-18T17:21:16.408Z,0.13
2023-04-18T17:23:43.138Z,0.20
2023-04-18T17:26:10.004Z,0.10
2023-04-18T17:28:36.972Z,0.20
2023-04-18T17:31:03.939Z,0.20
2023-04-18T17:33:31.182Z,0.90
2023-04-18T17:36:00.312Z,0.10
2023-04-18T17:38:26.928Z,2.20
2023-04-18T17:41:00.813Z,0.20
2023-04-18T17:43:27.584Z,0.10
2023-04-18T17:45:54.274Z,0.20
2023-04-18T17:48:21.263Z,0.20
2023-04-18T17:50:47.961Z,0.20
2023-04-18T17:53:14.596Z,0.20
2023-04-18T17:55:41.377Z,0.20
2023-04-18T17:58:08.003Z,1.93
2023-04-18T18:00:34.782Z,0.13
2023-04-18T18:03:01.874Z,0.20
2023-04-18T18:05:30.269Z,0.20
2023-04-18T18:07:57.761Z,0.20
2023-04-18T18:10:25.087Z,0.10
2023-04-18T18:12:51.714Z,0.20
2023-04-18T18:15:18.962Z,0.20
2023-04-18T18:17:48.678Z,0.20
2023-04-18T18:20:15.635Z,0.20
2023-04-18T18:22:43.293Z,0.30
2023-04-18T18:25:10.407Z,0.20
2023-04-18T18:27:37.122Z,0.20
2023-04-18T18:30:04.739Z,1.17
2023-04-18T18:32:31.399Z,0.20
2023-04-18T18:34:58.015Z,0.20
2023-04-18T18:37:26.092Z,0.97
2023-04-18T18:39:56.634Z,5.17
2023-04-18T18:42:23.719Z,15.43
2023-04-18T18:44:50.548Z,16.17
2023-04-18T18:47:18.091Z,15.50
2023-04-18T18:49:44.701Z,17.17
2023-04-18T18:52:11.362Z,15.50
2023-04-18T18:54:38.003Z,19.67
2023-04-18T18:57:04.645Z,17.83
2023-04-18T18:59:31.619Z,20.07
2023-04-18T19:01:58.453Z,17.70
2023-04-18T19:04:25.626Z,20.90
2023-04-18T19:06:53.584Z,25.03
2023-04-18T19:09:20.312Z,20.00
2023-04-18T19:11:47.002Z,29.17
2023-04-18T19:14:13.850Z,32.17
2023-04-18T19:16:40.611Z,21.90
2023-04-18T19:19:07.234Z,22.23
2023-04-18T19:21:33.774Z,20.63
2023-04-18T19:24:00.438Z,19.17
2023-04-18T19:26:27.117Z,23.57
2023-04-18T19:28:54.526Z,23.47
2023-04-18T19:31:21.242Z,26.03
2023-04-18T19:33:47.912Z,24.27
2023-04-18T19:36:14.560Z,27.10
2023-04-18T19:38:41.600Z,25.57
2023-04-18T19:41:08.201Z,22.93
2023-04-18T19:43:34.798Z,24.30
2023-04-18T19:46:01.987Z,18.87
2023-04-18T19:48:28.596Z,21.07
2023-04-18T19:50:56.402Z,23.87
2023-04-18T19:53:23.935Z,21.80
2023-04-18T19:55:50.828Z,22.00
2023-04-18T19:58:45.109Z,21.90
2023-04-18T20:01:13.046Z,20.50
2023-04-18T20:03:40.453Z,21.47
2023-04-18T20:06:07.898Z,24.20
2023-04-18T20:08:36.382Z,19.80
2023-04-18T20:11:14.041Z,22.30
2023-04-18T20:13:41.369Z,0.20
2023-04-18T20:16:08.981Z,0.30
2023-04-18T20:18:37.842Z,0.10
2023-04-18T20:21:06.501Z,0.37
2023-04-18T20:23:33.887Z,0.30
2023-04-18T20:26:00.623Z,0.40
2023-04-18T20:28:27.315Z,0.50
2023-04-18T20:30:54.011Z,0.83
2023-04-18T20:33:20.996Z,0.40
2023-04-18T20:35:47.605Z,0.40
2023-04-18T20:38:14.973Z,0.40
2023-04-18T20:40:53.248Z,1.13
2023-04-18T20:43:21.278Z,1.13
2023-04-18T20:45:50.938Z,0.50
2023-04-18T20:48:18.407Z,0.60
2023-04-18T20:50:50.947Z,0.50
2023-04-18T20:53:20.794Z,0.50
2023-04-18T20:55:48.213Z,0.97
2023-04-18T20:58:14.829Z,0.50
2023-04-18T21:00:41.949Z,0.50
2023-04-18T21:03:08.850Z,0.60
2023-04-18T21:05:35.744Z,0.60
2023-04-18T21:08:02.448Z,0.50
2023-04-18T21:10:29.075Z,0.30
2023-04-18T21:13:01.473Z,0.50
2023-04-18T21:15:28.112Z,0.33
2023-04-18T21:17:56.021Z,0.40
2023-04-18T21:20:22.751Z,0.60
2023-04-18T21:22:49.326Z,0.40
2023-04-18T21:25:16.495Z,0.50
2023-04-18T21:27:43.101Z,0.50
2023-04-18T21:30:09.912Z,0.43
2023-04-18T21:32:36.536Z,0.40
2023-04-18T21:35:03.361Z,0.30
2023-04-18T21:37:30.270Z,0.30
2023-04-18T21:39:56.829Z,0.40
2023-04-18T21:42:23.427Z,0.40
2023-04-18T21:44:50.052Z,0.50
2023-04-18T21:47:16.621Z,0.40
2023-04-18T21:49:43.429Z,0.60
2023-04-18T21:52:10.148Z,0.50
2023-04-18T21:54:36.839Z,0.50
2023-04-18T21:57:06.630Z,0.73
2023-04-18T21:59:33.323Z,0.60
2023-04-18T22:01:59.991Z,0.60
2023-04-18T22:04:27.053Z,0.50
2023-04-18T22:06:54.314Z,0.50
2023-04-18T22:09:21.534Z,0.60
2023-04-18T22:11:48.535Z,0.40
2023-04-18T22:14:15.316Z,0.50
2023-04-18T22:16:42.480Z,0.50
2023-04-18T22:19:09.196Z,0.50
2023-04-18T22:21:35.843Z,0.77
2023-04-18T22:24:02.715Z,0.50
2023-04-18T22:26:29.306Z,0.50
2023-04-18T22:28:55.918Z,0.40
2023-04-18T22:31:22.675Z,0.30
2023-04-18T22:33:49.371Z,0.33
2023-04-18T22:36:16.090Z,0.50
2023-04-18T22:38:42.751Z,0.43
2023-04-18T22:41:09.306Z,0.50
2023-04-18T22:43:35.922Z,0.50
2023-04-18T22:46:02.607Z,0.40
2023-04-18T22:48:29.495Z,0.33
2023-04-18T22:50:56.078Z,0.50
2023-04-18T22:53:22.648Z,0.47
2023-04-18T22:55:49.256Z,0.40
2023-04-18T22:58:15.890Z,0.30
2023-04-18T23:00:42.445Z,0.90
2023-04-18T23:03:09.371Z,0.50
2023-04-18T23:05:36.143Z,0.50
2023-04-18T23:08:02.811Z,0.60
2023-04-18T23:10:29.608Z,0.87
2023-04-18T23:12:56.628Z,0.70
2023-04-18T23:15:23.250Z,0.60
2023-04-18T23:17:52.679Z,0.50
2023-04-18T23:20:20.300Z,0.60
2023-04-18T23:22:49.305Z,0.57
2023-04-18T23:25:16.331Z,0.60
2023-04-18T23:27:42.975Z,0.50
2023-04-18T23:30:10.193Z,0.50
2023-04-18T23:32:36.745Z,0.50
2023-04-18T23:35:04.618Z,0.50
2023-04-18T23:37:31.532Z,0.60
2023-04-18T23:39:59.495Z,0.73
2023-04-18T23:42:26.184Z,0.50
2023-04-18T23:44:52.864Z,0.53
2023-04-18T23:47:19.492Z,0.40
2023-04-18T23:49:46.361Z,5.30
2023-04-18T23:52:12.942Z,3.00
2023-04-18T23:54:39.597Z,0.40
2023-04-18T23:57:06.310Z,0.50
2023-04-18T23:59:32.886Z,0.50
